Time;durP1;ratioP1;P1;durP2;ratioP2;P2;SDS_P1;SDS_P2;PMS_P1;PMS_P2;Temp;Humidity;BMP_temperature;BMP_pressure;BME280_temperature;BME280_humidity;BME280_pressure;Samples;Min_cycle;Max_cycle;Signal;HPM_P1;HPM_P2
2021/08/16 00:01:41;;;;;;;22.87;12.93;;;23.90;99.90;;;;;;5027203;28;20484;-62
2021/08/16 00:04:08;;;;;;;19.30;11.40;;;23.90;99.90;;;;;;5030217;28;20456;-62
2021/08/16 00:06:35;;;;;;;18.27;13.90;;;23.80;99.90;;;;;;5030731;28;20913;-62
2021/08/16 00:09:03;;;;;;;15.13;11.03;;;23.70;99.90;;;;;;5031668;28;20458;-62
2021/08/16 00:11:30;;;;;;;16.87;11.43;;;23.70;99.90;;;;;;5031096;28;20448;-62
2021/08/16 00:13:57;;;;;;;15.63;11.03;;;23.70;99.90;;;;;;5031411;28;20453;-62
2021/08/16 00:16:24;;;;;;;18.80;11.30;;;23.60;99.90;;;;;;5031666;28;20910;-62
2021/08/16 00:18:51;;;;;;;17.93;11.80;;;23.50;99.90;;;;;;5031074;28;20950;-62
2021/08/16 00:21:18;;;;;;;15.80;11.90;;;23.40;99.90;;;;;;5031398;28;20914;-62
2021/08/16 00:23:45;;;;;;;16.40;10.73;;;23.40;99.90;;;;;;5031065;28;20509;-62
2021/08/16 00:26:14;;;;;;;18.77;10.57;;;23.40;99.90;;;;;;5030389;28;20535;-62
2021/08/16 00:28:41;;;;;;;18.00;10.33;;;23.50;99.90;;;;;;5031339;28;20448;-62
2021/08/16 00:31:08;;;;;;;13.17;10.50;;;23.40;99.90;;;;;;5031109;28;20457;-62
2021/08/16 00:33:35;;;;;;;15.93;10.73;;;23.30;99.90;;;;;;5013217;28;20891;-63
2021/08/16 00:36:02;;;;;;;14.30;9.43;;;23.40;99.90;;;;;;5012099;28;20481;-62
2021/08/16 00:38:30;;;;;;;14.57;9.17;;;23.40;99.90;;;;;;5012231;28;20457;-62
2021/08/16 00:40:57;;;;;;;14.20;9.33;;;23.40;99.90;;;;;;5016067;28;20502;-62
2021/08/16 00:43:25;;;;;;;15.37;9.37;;;23.40;99.90;;;;;;5015042;28;20485;-62
2021/08/16 00:45:53;;;;;;;10.33;8.03;;;23.40;99.90;;;;;;5029794;28;20484;-62
2021/08/16 00:48:20;;;;;;;10.63;8.33;;;23.40;99.90;;;;;;5031287;28;21004;-62
2021/08/16 00:50:47;;;;;;;14.67;7.80;;;23.30;99.90;;;;;;5030687;28;20966;-62
2021/08/16 00:53:15;;;;;;;11.00;8.43;;;23.30;99.90;;;;;;5031558;28;20449;-62
2021/08/16 00:56:01;;;;;;;13.33;8.33;;;23.20;99.90;;;;;;5031623;28;20551;-62
2021/08/16 00:58:29;;;;;;;10.70;7.37;;;23.30;99.90;;;;;;5031348;28;20533;-62
2021/08/16 01:00:58;;;;;;;11.00;7.73;;;23.30;99.90;;;;;;5030582;28;20535;-62
2021/08/16 01:03:26;;;;;;;18.07;7.90;;;23.30;99.90;;;;;;5031471;28;20567;-62
2021/08/16 01:05:53;;;;;;;11.67;7.70;;;23.20;99.90;;;;;;5029999;28;20476;-63
2021/08/16 01:08:21;;;;;;;9.13;8.10;;;23.30;99.90;;;;;;5025782;28;20455;-62
2021/08/16 01:10:48;;;;;;;13.93;8.83;;;23.20;99.90;;;;;;5030237;28;20527;-62
2021/08/16 01:13:15;;;;;;;15.67;9.83;;;23.30;99.90;;;;;;5030825;28;20453;-62
2021/08/16 01:15:59;;;;;;;11.37;9.23;;;23.40;99.90;;;;;;5029929;28;20472;-62
2021/08/16 01:18:26;;;;;;;12.77;9.20;;;23.50;99.90;;;;;;5031270;28;20494;-62
2021/08/16 01:20:54;;;;;;;17.70;10.07;;;23.50;99.90;;;;;;5030763;28;20444;-62
2021/08/16 01:23:22;;;;;;;12.30;8.83;;;23.50;99.90;;;;;;5031139;28;20484;-62
2021/08/16 01:25:50;;;;;;;12.13;8.87;;;23.50;99.90;;;;;;5031146;28;20518;-62
2021/08/16 01:28:19;;;;;;;15.17;9.00;;;23.50;99.90;;;;;;5031482;28;20453;-62
2021/08/16 01:30:50;;;;;;;14.73;9.00;;;23.50;99.90;;;;;;5030732;28;20511;-62
2021/08/16 01:33:17;;;;;;;14.57;8.77;;;23.60;99.90;;;;;;5029724;28;20444;-62
2021/08/16 01:35:44;;;;;;;14.23;8.40;;;23.50;99.90;;;;;;5022291;28;20993;-62
2021/08/16 01:38:11;;;;;;;14.33;8.27;;;23.50;99.90;;;;;;5027627;28;20468;-62
2021/08/16 01:40:38;;;;;;;11.50;9.23;;;23.50;99.90;;;;;;5030146;28;20456;-62
2021/08/16 01:43:05;;;;;;;15.43;9.53;;;23.50;99.90;;;;;;5034357;28;20572;-62
2021/08/16 01:45:33;;;;;;;13.23;8.03;;;23.50;99.90;;;;;;5034820;28;20554;-62
2021/08/16 01:48:00;;;;;;;15.73;8.77;;;23.60;99.90;;;;;;5034489;28;21021;-62
2021/08/16 01:50:27;;;;;;;11.93;8.20;;;23.70;99.90;;;;;;5034103;28;20449;-62
2021/08/16 01:52:54;;;;;;;9.63;7.80;;;23.60;99.90;;;;;;5028499;28;20449;-62
2021/08/16 01:55:21;;;;;;;11.13;7.07;;;23.60;99.90;;;;;;5034828;28;20453;-62
2021/08/16 01:57:49;;;;;;;15.47;8.10;;;23.60;99.90;;;;;;5034590;28;20453;-62
2021/08/16 02:00:20;;;;;;;13.30;7.50;;;23.60;99.90;;;;;;5033659;28;20950;-62
2021/08/16 02:02:50;;;;;;;10.90;7.40;;;23.40;99.90;;;;;;5014446;28;20477;-62
2021/08/16 02:05:17;;;;;;;10.60;6.43;;;23.50;99.90;;;;;;5014621;28;21008;-62
2021/08/16 02:07:44;;;;;;;9.33;6.97;;;23.50;99.90;;;;;;5029202;28;20452;-62
2021/08/16 02:10:11;;;;;;;12.03;7.37;;;23.40;99.90;;;;;;5034353;28;20506;-62
2021/08/16 02:12:38;;;;;;;10.20;6.50;;;23.40;99.90;;;;;;5032901;28;20445;-62
2021/08/16 02:15:07;;;;;;;7.60;6.80;;;23.40;99.90;;;;;;5034220;28;20456;-62
2021/08/16 02:17:34;;;;;;;12.50;7.40;;;23.30;99.90;;;;;;5033945;28;20468;-62
2021/08/16 02:20:04;;;;;;;10.33;6.90;;;23.20;99.90;;;;;;5034218;28;20448;-62
2021/08/16 02:22:31;;;;;;;11.53;6.37;;;23.20;99.90;;;;;;5033919;28;21075;-62
2021/08/16 02:24:58;;;;;;;16.37;7.50;;;23.20;99.90;;;;;;5033596;28;20502;-62
2021/08/16 02:27:25;;;;;;;9.70;7.47;;;23.10;99.90;;;;;;5033749;28;20473;-62
2021/08/16 02:29:52;;;;;;;9.20;7.07;;;23.30;99.90;;;;;;5033995;28;20497;-62
2021/08/16 02:32:19;;;;;;;10.73;7.53;;;23.10;99.90;;;;;;5020721;28;20448;-62
2021/08/16 02:34:46;;;;;;;11.10;6.83;;;22.90;99.90;;;;;;5033884;28;20507;-62
2021/08/16 02:37:18;;;;;;;14.73;8.47;;;22.90;99.90;;;;;;5033289;28;20530;-62
2021/08/16 02:39:45;;;;;;;17.37;8.33;;;22.60;99.90;;;;;;5034017;28;20835;-62
2021/08/16 02:42:12;;;;;;;15.83;9.40;;;22.50;99.90;;;;;;5032380;28;20456;-62
2021/08/16 02:44:39;;;;;;;20.83;9.40;;;22.20;99.90;;;;;;5014069;28;20445;-62
2021/08/16 02:47:07;;;;;;;12.30;8.67;;;22.10;99.90;;;;;;5017515;28;20542;-62
2021/08/16 02:49:34;;;;;;;15.63;9.07;;;21.80;99.90;;;;;;5033756;28;20452;-62
2021/08/16 02:52:03;;;;;;;14.37;9.00;;;21.80;99.90;;;;;;5031896;28;20452;-62
2021/08/16 02:54:31;;;;;;;16.40;8.43;;;21.90;99.90;;;;;;5033073;28;20558;-62
2021/08/16 02:56:58;;;;;;;15.47;8.60;;;21.80;99.90;;;;;;5033488;28;20974;-62
2021/08/16 02:59:25;;;;;;;17.10;9.60;;;21.70;99.90;;;;;;5033486;28;20456;-62
2021/08/16 03:01:52;;;;;;;21.37;11.23;;;21.70;99.90;;;;;;5020515;28;20947;-62
2021/08/16 03:04:19;;;;;;;13.10;9.23;;;21.60;99.90;;;;;;5018146;28;20484;-62
2021/08/16 03:06:46;;;;;;;18.53;9.90;;;21.60;99.90;;;;;;5033138;28;20476;-62
2021/08/16 03:09:13;;;;;;;16.00;9.77;;;21.60;99.90;;;;;;5033278;28;20871;-62
2021/08/16 03:11:41;;;;;;;11.40;9.10;;;21.50;99.90;;;;;;5022314;28;20453;-62
2021/08/16 03:14:08;;;;;;;15.80;10.00;;;21.70;99.90;;;;;;5019993;28;20511;-62
2021/08/16 03:16:35;;;;;;;13.80;8.60;;;21.50;99.90;;;;;;5033382;28;20465;-62
2021/08/16 03:19:02;;;;;;;13.47;9.30;;;21.50;99.90;;;;;;5032506;28;20448;-62
2021/08/16 03:21:29;;;;;;;14.13;9.10;;;21.50;99.90;;;;;;5027620;28;20470;-62
2021/08/16 03:23:56;;;;;;;15.00;9.53;;;21.40;99.90;;;;;;5026440;28;20528;-62
2021/08/16 03:26:23;;;;;;;15.70;9.90;;;21.30;99.90;;;;;;5032935;28;20480;-62
2021/08/16 03:28:51;;;;;;;10.93;9.30;;;21.40;99.90;;;;;;5032779;28;20510;-62
2021/08/16 03:31:19;;;;;;;11.87;8.60;;;21.40;99.90;;;;;;5032500;28;20453;-62
2021/08/16 03:33:46;;;;;;;14.23;9.20;;;21.40;99.90;;;;;;5032366;28;21061;-62
2021/08/16 03:36:13;;;;;;;14.57;8.60;;;21.30;99.90;;;;;;5032613;28;20472;-62
2021/08/16 03:38:40;;;;;;;10.97;8.73;;;21.30;99.90;;;;;;5032719;28;20444;-62
2021/08/16 03:41:07;;;;;;;13.80;8.37;;;21.20;99.90;;;;;;5031828;28;20510;-61
2021/08/16 03:43:34;;;;;;;11.90;7.73;;;21.10;99.90;;;;;;5022672;28;20485;-62
2021/08/16 03:46:03;;;;;;;11.70;7.60;;;21.10;99.90;;;;;;5012833;28;20485;-62
2021/08/16 03:48:30;;;;;;;9.07;7.30;;;21.00;99.90;;;;;;5031091;28;20570;-62
2021/08/16 03:50:57;;;;;;;11.73;8.00;;;21.00;99.90;;;;;;5029125;28;20458;-62
2021/08/16 03:53:23;;;;;;;10.33;7.53;;;21.10;99.90;;;;;;5031322;28;20575;-62
2021/08/16 03:55:50;;;;;;;10.97;7.83;;;21.10;99.90;;;;;;5024420;28;20476;-62
2021/08/16 03:58:17;;;;;;;9.03;7.60;;;21.10;99.90;;;;;;5028288;28;20503;-62
2021/08/16 04:00:44;;;;;;;12.30;8.43;;;21.20;99.90;;;;;;5021995;28;20452;-62
2021/08/16 04:03:13;;;;;;;15.57;9.33;;;21.10;99.90;;;;;;5030911;28;20487;-62
2021/08/16 04:05:40;;;;;;;12.67;8.80;;;21.10;99.90;;;;;;5032236;28;20978;-62
2021/08/16 04:08:08;;;;;;;12.93;8.00;;;21.10;99.90;;;;;;5030001;28;20539;-62
2021/08/16 04:10:35;;;;;;;12.57;8.37;;;21.00;99.90;;;;;;5023895;28;20971;-62
2021/08/16 04:13:03;;;;;;;13.17;8.13;;;21.10;99.90;;;;;;5031784;28;20579;-62
2021/08/16 04:15:30;;;;;;;12.83;8.80;;;21.00;99.90;;;;;;5031757;28;20487;-62
2021/08/16 04:17:57;;;;;;;15.97;8.93;;;20.90;99.90;;;;;;5031642;28;20444;-62
2021/08/16 04:20:25;;;;;;;10.00;7.90;;;20.90;99.90;;;;;;5032033;28;20452;-62
2021/08/16 04:22:52;;;;;;;13.70;6.97;;;20.90;99.90;;;;;;5030912;28;20452;-62
2021/08/16 04:25:20;;;;;;;10.13;7.20;;;20.90;99.90;;;;;;5031927;28;20453;-62
2021/08/16 04:27:48;;;;;;;9.77;6.97;;;20.80;99.90;;;;;;5031548;28;20543;-62
2021/08/16 04:30:16;;;;;;;8.83;6.67;;;20.80;99.90;;;;;;5012971;28;20959;-62
2021/08/16 04:32:43;;;;;;;8.10;6.10;;;20.60;99.90;;;;;;5024259;28;20453;-62
2021/08/16 04:35:11;;;;;;;10.97;6.57;;;20.50;99.90;;;;;;5031345;28;20511;-62
2021/08/16 04:37:41;;;;;;;8.13;5.97;;;20.30;99.90;;;;;;5031713;28;21147;-62
2021/08/16 04:40:10;;;;;;;7.63;6.40;;;20.30;99.90;;;;;;5030652;28;21152;-62
2021/08/16 04:42:37;;;;;;;9.27;6.73;;;20.40;99.90;;;;;;5031070;28;20502;-62
2021/08/16 04:45:06;;;;;;;12.87;7.27;;;20.30;99.90;;;;;;5031329;28;20484;-62
2021/08/16 04:47:33;;;;;;;10.40;7.57;;;20.30;99.90;;;;;;5029585;28;20511;-62
2021/08/16 04:50:00;;;;;;;9.90;8.00;;;20.30;99.90;;;;;;5022238;28;20480;-60
2021/08/16 04:52:27;;;;;;;11.77;8.47;;;20.30;99.90;;;;;;5027883;28;20459;-62
2021/08/16 04:54:56;;;;;;;11.60;8.30;;;20.20;99.90;;;;;;5031720;28;20448;-62
2021/08/16 04:57:33;;;;;;;12.30;7.03;;;20.20;99.90;;;;;;5018867;28;20473;-62
2021/08/16 05:00:01;;;;;;;9.27;7.30;;;20.20;99.90;;;;;;5026867;28;20460;-61
2021/08/16 05:02:28;;;;;;;14.23;7.40;;;20.20;99.90;;;;;;5029995;28;20452;-62
2021/08/16 05:04:57;;;;;;;9.43;7.30;;;20.20;99.90;;;;;;5031624;28;20488;-62
2021/08/16 05:07:24;;;;;;;8.80;6.87;;;20.20;99.90;;;;;;5031573;28;20472;-62
2021/08/16 05:09:53;;;;;;;9.80;6.30;;;20.30;99.90;;;;;;5030334;28;20510;-62
2021/08/16 05:12:24;;;;;;;7.10;6.30;;;20.40;99.90;;;;;;5031160;28;21001;-61
2021/08/16 05:14:52;;;;;;;9.07;6.77;;;20.30;99.90;;;;;;5032875;28;20444;-61
2021/08/16 05:17:19;;;;;;;11.30;6.80;;;20.30;99.90;;;;;;5035358;28;20498;-62
2021/08/16 05:19:46;;;;;;;8.90;6.37;;;20.40;99.90;;;;;;5022377;28;20458;-62
2021/08/16 05:22:14;;;;;;;9.00;6.47;;;20.40;99.90;;;;;;5015371;28;20548;-62
2021/08/16 05:24:41;;;;;;;10.83;6.27;;;20.40;99.90;;;;;;5015425;28;20528;-62
2021/08/16 05:27:08;;;;;;;14.83;6.90;;;20.40;99.90;;;;;;5015319;28;20913;-62
2021/08/16 05:29:36;;;;;;;8.70;6.70;;;20.40;99.90;;;;;;5026885;28;20459;-62
2021/08/16 05:32:04;;;;;;;10.90;6.70;;;20.40;99.90;;;;;;5034635;28;20456;-61
2021/08/16 05:34:31;;;;;;;9.20;7.10;;;20.40;99.90;;;;;;5035295;28;20502;-62
2021/08/16 05:36:58;;;;;;;11.13;7.17;;;20.50;99.90;;;;;;5035052;28;20460;-59
2021/08/16 05:39:25;;;;;;;10.17;6.50;;;20.40;99.90;;;;;;5025250;28;20540;-61
2021/08/16 05:41:52;;;;;;;8.67;6.47;;;20.30;99.90;;;;;;5015065;28;20442;-62
2021/08/16 05:44:19;;;;;;;9.00;6.27;;;20.40;99.90;;;;;;5015046;28;20477;-62
2021/08/16 05:46:48;;;;;;;8.53;6.50;;;20.30;99.90;;;;;;5032141;28;20494;-61
2021/08/16 05:49:15;;;;;;;8.10;6.60;;;20.10;99.90;;;;;;5026463;28;20511;-61
2021/08/16 05:51:42;;;;;;;12.70;6.80;;;20.00;99.90;;;;;;5023675;28;20445;-61
2021/08/16 05:54:09;;;;;;;7.13;6.20;;;19.90;99.90;;;;;;5034495;28;20992;-61
2021/08/16 05:56:38;;;;;;;15.30;6.33;;;19.80;99.90;;;;;;5034633;28;20465;-62
2021/08/16 05:59:05;;;;;;;11.20;7.10;;;19.80;99.90;;;;;;5028332;28;20457;-61
2021/08/16 06:01:33;;;;;;;9.20;6.07;;;19.80;99.90;;;;;;5022310;28;20448;-59
2021/08/16 06:04:02;;;;;;;9.77;6.70;;;19.90;99.90;;;;;;5034268;28;20488;-59
2021/08/16 06:06:29;;;;;;;8.30;6.50;;;19.90;99.90;;;;;;5034416;28;20556;-59
2021/08/16 06:08:56;;;;;;;7.73;6.27;;;20.00;99.90;;;;;;5029506;28;20880;-59
2021/08/16 06:11:25;;;;;;;11.43;8.17;;;20.00;99.90;;;;;;5014701;28;20459;-61
2021/08/16 06:13:52;;;;;;;8.87;5.77;;;19.90;99.90;;;;;;5015954;28;20453;-62
2021/08/16 06:16:20;;;;;;;10.30;7.33;;;20.00;99.90;;;;;;5020696;28;20858;-61
2021/08/16 06:18:47;;;;;;;11.20;6.90;;;20.00;99.90;;;;;;5030342;28;20994;-61
2021/08/16 06:21:15;;;;;;;8.70;6.53;;;19.90;99.90;;;;;;5014360;28;20951;-61
2021/08/16 06:23:42;;;;;;;9.30;7.00;;;20.00;99.90;;;;;;5031678;28;21063;-61
2021/08/16 06:26:09;;;;;;;10.83;6.40;;;19.90;99.90;;;;;;5032042;28;20476;-62
2021/08/16 06:28:37;;;;;;;9.90;6.03;;;19.90;99.90;;;;;;5029683;28;20453;-61
2021/08/16 06:31:04;;;;;;;9.13;6.87;;;20.00;99.90;;;;;;5014433;28;20512;-61
2021/08/16 06:33:31;;;;;;;10.53;6.50;;;19.90;99.90;;;;;;5015171;28;20479;-61
2021/08/16 06:35:58;;;;;;;12.03;7.37;;;19.90;99.90;;;;;;5033623;28;20830;-59
2021/08/16 06:38:26;;;;;;;11.53;7.00;;;19.80;99.90;;;;;;5033097;28;20452;-61
2021/08/16 06:40:55;;;;;;;14.10;8.07;;;19.80;99.90;;;;;;5027140;28;21036;-61
2021/08/16 06:43:23;;;;;;;11.83;7.67;;;19.80;99.90;;;;;;5030806;28;20465;-61
2021/08/16 06:45:50;;;;;;;9.63;6.90;;;19.90;99.90;;;;;;5022884;28;20485;-61
2021/08/16 06:48:19;;;;;;;10.67;7.80;;;19.90;99.90;;;;;;5019698;28;21047;-59
2021/08/16 06:50:47;;;;;;;12.50;7.10;;;19.80;99.90;;;;;;5025307;28;20857;-59
2021/08/16 06:53:16;;;;;;;10.27;7.00;;;19.80;99.90;;;;;;5029571;28;20474;-60
2021/08/16 06:55:45;;;;;;;7.10;6.33;;;19.70;99.90;;;;;;5029407;28;20532;-59
2021/08/16 06:58:12;;;;;;;9.63;6.70;;;19.70;99.90;;;;;;5031362;28;20909;-61
2021/08/16 07:00:41;;;;;;;8.80;6.33;;;19.70;99.90;;;;;;5024830;28;20875;-61
2021/08/16 07:03:09;;;;;;;8.10;6.20;;;19.70;99.90;;;;;;5013517;28;20962;-61
2021/08/16 07:05:37;;;;;;;9.03;5.93;;;19.70;99.90;;;;;;5035658;28;20516;-59
2021/08/16 07:08:05;;;;;;;8.03;5.77;;;19.90;99.90;;;;;;5027175;28;20472;-59
2021/08/16 07:10:32;;;;;;;9.40;5.90;;;19.90;99.90;;;;;;5031300;28;20527;-59
2021/08/16 07:13:01;;;;;;;13.10;5.40;;;19.80;99.90;;;;;;5033043;28;20449;-61
2021/08/16 07:15:28;;;;;;;6.83;5.60;;;19.90;99.90;;;;;;5033044;28;20445;-61
2021/08/16 07:17:56;;;;;;;7.47;5.20;;;19.90;99.90;;;;;;5013364;28;20458;-59
2021/08/16 07:20:24;;;;;;;7.73;5.57;;;19.90;99.90;;;;;;5013464;28;20457;-62
2021/08/16 07:22:51;;;;;;;6.87;5.00;;;19.90;99.90;;;;;;5013102;28;20927;-62
2021/08/16 07:25:18;;;;;;;8.27;5.47;;;19.90;99.90;;;;;;5013032;28;20497;-62
2021/08/16 07:27:46;;;;;;;7.50;5.73;;;19.90;99.90;;;;;;5027756;28;20452;-62
2021/08/16 07:30:15;;;;;;;7.17;5.40;;;19.90;99.90;;;;;;5032998;28;20448;-61
2021/08/16 07:32:43;;;;;;;8.20;5.40;;;20.10;99.90;;;;;;5023770;28;20967;-61
2021/08/16 07:35:14;;;;;;;8.63;5.63;;;20.20;99.90;;;;;;5024033;28;20489;-61
2021/08/16 07:37:42;;;;;;;6.93;5.50;;;20.30;99.90;;;;;;5027022;28;20456;-61
2021/08/16 07:40:12;;;;;;;6.90;5.20;;;20.40;99.90;;;;;;5025279;28;20499;-62
2021/08/16 07:42:40;;;;;;;7.13;5.30;;;20.60;99.90;;;;;;5028418;28;20840;-61
2021/08/16 07:45:08;;;;;;;5.87;5.27;;;20.70;99.90;;;;;;5032343;28;20499;-62
2021/08/16 07:47:37;;;;;;;9.87;6.27;;;20.80;99.90;;;;;;5032384;28;20484;-61
2021/08/16 07:50:07;;;;;;;8.47;6.10;;;20.80;99.90;;;;;;5032478;28;20447;-61
2021/08/16 07:52:36;;;;;;;7.47;6.13;;;20.50;99.90;;;;;;5028445;28;20980;-61
2021/08/16 07:55:06;;;;;;;7.43;5.27;;;20.60;99.90;;;;;;5025754;28;20539;-61
2021/08/16 07:57:33;;;;;;;9.23;5.63;;;20.60;99.90;;;;;;5027579;28;20512;-61
2021/08/16 08:00:00;;;;;;;8.63;5.93;;;20.80;99.90;;;;;;5031951;28;20507;-61
2021/08/16 08:02:38;;;;;;;8.60;5.93;;;20.90;99.90;;;;;;5031766;28;20453;-61
2021/08/16 08:05:07;;;;;;;7.60;5.97;;;21.00;99.90;;;;;;5031978;28;20993;-61
2021/08/16 08:07:34;;;;;;;6.47;5.53;;;21.10;99.90;;;;;;5032123;28;20473;-61
2021/08/16 08:10:01;;;;;;;9.37;5.90;;;21.10;99.90;;;;;;5031303;28;20498;-62
2021/08/16 08:12:28;;;;;;;6.40;5.80;;;21.10;99.90;;;;;;5025836;28;20516;-62
2021/08/16 08:14:55;;;;;;;8.83;6.70;;;21.20;99.90;;;;;;5032152;28;21084;-61
2021/08/16 08:17:22;;;;;;;9.43;5.93;;;21.20;99.90;;;;;;5029162;28;20974;-62
2021/08/16 08:19:49;;;;;;;10.27;6.33;;;21.10;99.90;;;;;;5025831;28;20461;-61
2021/08/16 08:22:22;;;;;;;11.00;6.73;;;21.10;99.90;;;;;;5030679;28;20452;-62
2021/08/16 08:24:49;;;;;;;9.90;7.27;;;21.00;99.90;;;;;;5032068;28;20473;-62
2021/08/16 08:27:17;;;;;;;9.20;6.80;;;20.70;99.90;;;;;;5027484;28;20462;-62
2021/08/16 08:29:45;;;;;;;8.27;6.07;;;20.70;99.90;;;;;;5024195;28;20506;-62
2021/08/16 08:32:12;;;;;;;7.63;6.63;;;20.80;99.90;;;;;;5031653;28;20452;-61
2021/08/16 08:34:39;;;;;;;9.17;7.10;;;20.80;99.90;;;;;;5018180;28;20522;-61
2021/08/16 08:37:10;;;;;;;10.33;7.20;;;20.80;99.90;;;;;;5030691;28;20986;-61
2021/08/16 08:39:39;;;;;;;13.00;7.77;;;20.80;99.90;;;;;;5031582;28;20448;-61
2021/08/16 08:42:08;;;;;;;17.73;8.73;;;20.80;99.90;;;;;;5031739;28;20507;-61
2021/08/16 08:44:37;;;;;;;10.30;8.00;;;20.70;99.90;;;;;;5028693;28;20485;-61
2021/08/16 08:47:06;;;;;;;16.23;9.33;;;20.80;99.90;;;;;;5022024;28;20945;-61
2021/08/16 08:49:33;;;;;;;12.83;9.10;;;20.90;99.90;;;;;;5030353;28;20448;-61
2021/08/16 08:52:02;;;;;;;11.97;7.97;;;20.90;99.90;;;;;;5031479;28;20453;-61
2021/08/16 08:54:29;;;;;;;12.30;7.33;;;20.80;99.90;;;;;;5011837;28;20536;-61
2021/08/16 08:56:59;;;;;;;13.30;8.47;;;20.80;99.90;;;;;;5011849;28;20474;-59
2021/08/16 08:59:26;;;;;;;13.87;8.07;;;20.40;99.90;;;;;;5021641;28;20469;-61
2021/08/16 09:01:55;;;;;;;9.30;7.10;;;20.60;99.90;;;;;;5031112;28;20455;-62
2021/08/16 09:04:23;;;;;;;10.60;6.70;;;20.80;99.90;;;;;;5031322;28;20449;-62
2021/08/16 09:06:50;;;;;;;10.10;6.53;;;20.90;99.90;;;;;;5031099;28;20464;-62
2021/08/16 09:09:18;;;;;;;10.23;7.37;;;21.10;99.90;;;;;;5031161;28;20456;-62
2021/08/16 09:11:51;;;;;;;8.70;6.60;;;21.10;99.90;;;;;;5030261;28;20539;-62
2021/08/16 09:14:23;;;;;;;8.67;6.27;;;20.90;99.90;;;;;;5023104;28;20492;-59
2021/08/16 09:16:51;;;;;;;9.73;6.73;;;20.80;99.90;;;;;;5023372;28;20468;-59
2021/08/16 09:19:20;;;;;;;7.47;6.77;;;20.70;99.90;;;;;;5024693;28;20460;-59
2021/08/16 09:21:52;;;;;;;8.10;6.20;;;20.80;99.90;;;;;;5023265;28;20478;-62
2021/08/16 09:24:24;;;;;;;9.67;7.00;;;20.90;99.90;;;;;;5022810;28;20941;-61
2021/08/16 09:26:51;;;;;;;10.47;7.10;;;20.90;99.90;;;;;;5030210;28;20465;-60
2021/08/16 09:29:21;;;;;;;9.83;6.97;;;20.90;99.90;;;;;;5013949;28;20508;-62
2021/08/16 09:31:54;;;;;;;7.30;6.20;;;21.10;99.90;;;;;;5042612;28;20443;-61
2021/08/16 09:34:32;;;;;;;12.83;6.77;;;21.00;99.90;;;;;;5027938;28;20450;-61
2021/08/16 09:37:03;;;;;;;10.10;6.70;;;20.90;99.90;;;;;;5030049;28;20467;-62
2021/08/16 09:39:33;;;;;;;10.80;6.93;;;21.00;99.90;;;;;;5026107;28;20464;-61
2021/08/16 09:42:01;;;;;;;9.57;6.23;;;21.00;99.90;;;;;;5025385;28;20479;-61
2021/08/16 09:44:30;;;;;;;10.53;7.50;;;21.00;99.90;;;;;;5031695;28;20445;-61
2021/08/16 09:47:03;;;;;;;9.17;6.00;;;21.00;99.90;;;;;;5020557;28;20477;-61
2021/08/16 09:49:30;;;;;;;9.67;6.50;;;21.20;99.90;;;;;;5031154;28;20440;-61
2021/08/16 09:52:08;;;;;;;6.93;5.97;;;21.00;99.90;;;;;;5022204;28;20468;-61
2021/08/16 09:54:36;;;;;;;7.18;6.00;;;21.10;99.90;;;;;;5026541;28;20562;-62
2021/08/16 09:57:05;;;;;;;8.30;6.40;;;20.90;99.90;;;;;;5025568;28;20217;-62
2021/08/16 09:59:35;;;;;;;10.90;5.90;;;20.90;99.90;;;;;;5026196;28;20544;-62
2021/08/16 10:02:02;;;;;;;7.67;6.87;;;21.10;99.90;;;;;;5023349;28;20885;-62
2021/08/16 10:04:29;;;;;;;8.73;6.57;;;20.80;99.90;;;;;;5023824;28;20897;-62
2021/08/16 10:06:58;;;;;;;9.67;7.60;;;20.80;99.90;;;;;;5024865;28;20483;-62
2021/08/16 10:09:26;;;;;;;7.93;6.57;;;20.70;99.90;;;;;;5026566;28;20468;-62
2021/08/16 10:11:54;;;;;;;10.00;6.00;;;20.60;99.90;;;;;;5028666;28;20555;-62
2021/08/16 10:14:27;;;;;;;8.70;6.50;;;20.60;99.90;;;;;;5030779;28;20460;-62
2021/08/16 10:16:57;;;;;;;11.83;7.40;;;20.60;99.90;;;;;;5025875;28;20480;-62
2021/08/16 10:19:28;;;;;;;9.00;6.90;;;20.40;99.90;;;;;;5025713;28;20468;-62
2021/08/16 10:22:00;;;;;;;10.13;6.90;;;20.30;99.90;;;;;;5024914;28;20970;-61
2021/08/16 10:24:29;;;;;;;9.77;6.83;;;20.20;99.90;;;;;;5025662;28;20713;-61
2021/08/16 10:26:59;;;;;;;9.80;6.30;;;20.20;99.90;;;;;;5024601;28;20476;-62
2021/08/16 10:29:26;;;;;;;8.10;5.90;;;20.40;99.90;;;;;;5025378;28;21218;-62
2021/08/16 10:31:55;;;;;;;9.40;6.47;;;20.20;99.90;;;;;;5028220;28;20460;-62
2021/08/16 10:34:27;;;;;;;8.93;6.07;;;20.10;99.90;;;;;;5025459;28;20460;-62
2021/08/16 10:36:58;;;;;;;7.60;4.93;;;19.90;99.90;;;;;;5026686;28;20557;-62
2021/08/16 10:39:36;;;;;;;7.83;6.23;;;20.00;99.90;;;;;;5023903;28;20469;-62
2021/08/16 10:42:10;;;;;;;9.33;6.20;;;19.90;99.90;;;;;;5027806;28;20461;-62
2021/08/16 10:44:43;;;;;;;10.48;6.70;;;19.90;99.90;;;;;;5023687;28;20523;-62
2021/08/16 10:47:23;;;;;;;9.10;6.27;;;20.10;99.90;;;;;;5025128;28;20654;-62
2021/08/16 10:50:01;;;;;;;6.10;5.50;;;20.00;99.90;;;;;;5031221;28;20488;-62
2021/08/16 10:52:28;;;;;;;9.40;5.93;;;19.80;99.90;;;;;;5031563;28;20553;-62
2021/08/16 10:54:55;;;;;;;10.07;6.37;;;19.80;99.90;;;;;;5025502;28;20465;-62
2021/08/16 10:57:22;;;;;;;11.40;5.83;;;19.60;99.90;;;;;;5023815;28;20488;-62
2021/08/16 10:59:50;;;;;;;6.27;5.67;;;19.50;99.90;;;;;;5024778;28;20542;-62
2021/08/16 11:02:25;;;;;;;7.60;5.50;;;19.50;99.90;;;;;;5023861;28;20969;-61
2021/08/16 11:04:52;;;;;;;9.07;6.20;;;19.50;99.90;;;;;;5026296;28;20999;-62
2021/08/16 11:07:26;;;;;;;8.70;5.60;;;19.60;99.90;;;;;;5028928;28;20484;-61
2021/08/16 11:09:57;;;;;;;10.03;6.57;;;19.60;99.90;;;;;;5025721;28;20487;-61
2021/08/16 11:12:33;;;;;;;8.40;5.53;;;19.40;99.90;;;;;;5023759;28;20543;-62
2021/08/16 11:15:00;;;;;;;8.47;5.77;;;19.40;99.90;;;;;;5024875;28;20547;-62
2021/08/16 11:17:30;;;;;;;9.17;5.70;;;19.40;99.90;;;;;;5024689;28;20476;-61
2021/08/16 11:19:59;;;;;;;7.87;5.13;;;19.50;99.90;;;;;;5024452;28;20468;-62
2021/08/16 11:22:27;;;;;;;8.07;5.27;;;19.50;99.90;;;;;;5026985;28;20559;-61
2021/08/16 11:24:55;;;;;;;5.20;4.60;;;19.50;99.90;;;;;;5026779;28;20465;-61
2021/08/16 11:27:24;;;;;;;6.30;4.90;;;19.60;99.90;;;;;;5027206;28;20485;-61
2021/08/16 11:29:59;;;;;;;8.17;5.40;;;19.70;99.90;;;;;;5027704;28;20477;-62
2021/08/16 11:32:29;;;;;;;5.60;4.30;;;19.80;99.90;;;;;;5023732;28;20460;-61
2021/08/16 11:34:58;;;;;;;7.83;5.13;;;19.60;99.90;;;;;;5024140;28;20456;-62
2021/08/16 11:37:28;;;;;;;9.83;5.50;;;19.60;99.90;;;;;;5024156;28;20488;-61
2021/08/16 11:39:56;;;;;;;6.50;4.60;;;19.70;99.90;;;;;;5022205;28;20461;-61
2021/08/16 11:42:25;;;;;;;7.33;4.60;;;19.80;99.90;;;;;;5024203;28;20468;-61
2021/08/16 11:44:59;;;;;;;6.20;4.57;;;19.90;99.90;;;;;;5024789;28;20540;-62
2021/08/16 11:47:34;;;;;;;6.67;4.60;;;19.90;99.90;;;;;;5022996;28;20494;-62
2021/08/16 11:50:01;;;;;;;6.87;5.20;;;19.80;99.90;;;;;;5026413;28;20464;-61
2021/08/16 11:52:29;;;;;;;6.00;4.03;;;19.90;99.90;;;;;;5024339;28;20530;-61
2021/08/16 11:54:58;;;;;;;5.50;4.40;;;19.90;99.90;;;;;;5024570;28;20464;-62
2021/08/16 11:57:27;;;;;;;7.27;5.20;;;19.70;99.90;;;;;;5025342;28;20571;-62
2021/08/16 11:59:56;;;;;;;5.63;4.77;;;19.70;99.90;;;;;;5022117;28;21012;-61
2021/08/16 12:02:29;;;;;;;6.00;5.33;;;19.40;99.90;;;;;;5023497;28;20510;-62
2021/08/16 12:04:59;;;;;;;5.43;4.90;;;19.00;99.90;;;;;;5026676;28;20468;-61
2021/08/16 12:07:29;;;;;;;6.40;4.77;;;19.20;99.90;;;;;;5023900;28;20476;-62
2021/08/16 12:09:58;;;;;;;6.27;4.50;;;19.20;99.90;;;;;;5025758;28;20467;-62
2021/08/16 12:12:26;;;;;;;5.47;4.50;;;19.30;99.90;;;;;;5026190;28;20476;-61
2021/08/16 12:15:01;;;;;;;7.53;5.17;;;19.40;99.90;;;;;;5023417;28;20539;-62
2021/08/16 12:17:28;;;;;;;7.37;5.30;;;19.20;99.90;;;;;;5023984;28;21019;-61
2021/08/16 12:20:01;;;;;;;20.93;4.73;;;19.20;99.90;;;;;;5026743;28;20460;-62
2021/08/16 12:22:28;;;;;;;5.50;4.10;;;19.10;99.90;;;;;;5025233;28;20464;-62
2021/08/16 12:25:07;;;;;;;6.57;4.57;;;19.20;99.90;;;;;;5022106;28;20985;-62
2021/08/16 12:27:35;;;;;;;5.70;4.47;;;19.20;99.90;;;;;;5024348;28;20476;-62
2021/08/16 12:30:03;;;;;;;6.80;5.20;;;18.90;99.90;;;;;;5024604;28;20510;-62
2021/08/16 12:32:32;;;;;;;9.20;5.10;;;18.90;99.90;;;;;;5026147;28;20457;-62
2021/08/16 12:35:02;;;;;;;10.00;5.60;;;18.90;99.90;;;;;;5022491;28;20484;-61
2021/08/16 12:37:30;;;;;;;7.30;5.60;;;18.90;99.90;;;;;;5025013;28;20480;-62
2021/08/16 12:40:09;;;;;;;10.63;6.40;;;18.90;99.90;;;;;;5022620;28;20534;-62
2021/08/16 12:42:37;;;;;;;8.13;5.40;;;18.90;99.90;;;;;;5022595;28;20864;-62
2021/08/16 12:45:08;;;;;;;8.83;5.63;;;19.00;99.90;;;;;;5024298;28;20460;-62
2021/08/16 12:47:36;;;;;;;8.83;5.60;;;18.90;99.90;;;;;;5022457;28;20488;-62